createdAt,value
2022-11-29T00:01:27.997Z,70.25
2022-11-29T00:03:55.892Z,69.97
2022-11-29T00:06:29.567Z,70.39
2022-11-29T00:09:00.154Z,70.47
2022-11-29T00:11:49.571Z,70.77
2022-11-29T00:14:18.760Z,70.25
2022-11-29T00:16:50.883Z,70.60
2022-11-29T00:19:18.541Z,70.54
2022-11-29T00:21:46.459Z,70.45
2022-11-29T00:24:14.352Z,70.28
2022-11-29T00:26:42.161Z,70.33
2022-11-29T00:29:14.424Z,70.14
2022-11-29T00:31:42.293Z,70.47
2022-11-29T00:34:11.627Z,70.83
2022-11-29T00:36:39.713Z,70.79
2022-11-29T00:39:07.582Z,70.48
2022-11-29T00:41:35.573Z,70.80
2022-11-29T00:44:03.042Z,70.70
2022-11-29T00:46:30.490Z,70.39
2022-11-29T00:48:57.900Z,70.32
2022-11-29T00:51:25.492Z,69.87
2022-11-29T00:53:52.965Z,69.71
2022-11-29T00:56:20.541Z,69.58
2022-11-29T00:58:49.364Z,69.90
2022-11-29T01:01:17.362Z,69.82
2022-11-29T01:03:45.024Z,69.73
2022-11-29T01:06:15.413Z,70.10
2022-11-29T01:08:43.035Z,69.99
2022-11-29T01:11:18.443Z,69.69
2022-11-29T01:13:46.079Z,69.57
2022-11-29T01:16:15.611Z,69.64
2022-11-29T01:18:44.136Z,69.02
2022-11-29T01:21:17.720Z,69.15
2022-11-29T01:23:46.737Z,68.75
2022-11-29T01:26:23.056Z,69.19
2022-11-29T01:28:53.333Z,69.18
2022-11-29T01:31:27.431Z,68.67
2022-11-29T01:34:00.279Z,68.88
2022-11-29T01:36:28.692Z,68.80
2022-11-29T01:38:58.283Z,68.45
2022-11-29T01:41:28.723Z,68.76
2022-11-29T01:44:14.279Z,68.21
2022-11-29T01:46:44.814Z,68.54
2022-11-29T01:49:14.983Z,68.33
2022-11-29T01:51:55.666Z,68.74
2022-11-29T01:54:23.270Z,68.54
2022-11-29T01:56:52.981Z,68.16
2022-11-29T01:59:23.817Z,68.12
2022-11-29T02:01:52.490Z,67.91
2022-11-29T02:04:20.441Z,68.16
2022-11-29T02:06:48.244Z,68.37
2022-11-29T02:09:22.591Z,67.86
2022-11-29T02:11:52.840Z,67.96
2022-11-29T02:14:47.973Z,68.14
2022-11-29T02:17:38.523Z,67.98
2022-11-29T02:20:43.081Z,67.68
2022-11-29T02:23:25.696Z,68.03
2022-11-29T02:26:14.619Z,68.18
2022-11-29T02:29:19.191Z,68.38
2022-11-29T02:31:49.523Z,67.97
2022-11-29T02:35:02.783Z,68.20
2022-11-29T02:37:55.370Z,67.70
2022-11-29T02:40:41.684Z,67.35
2022-11-29T02:43:25.406Z,67.05
2022-11-29T02:46:10.846Z,67.42
2022-11-29T02:48:40.950Z,67.25
2022-11-29T02:51:36.642Z,67.90
2022-11-29T02:54:37.496Z,67.55
2022-11-29T02:57:20.904Z,67.81
2022-11-29T02:59:56.818Z,67.10
2022-11-29T03:02:36.886Z,67.40
2022-11-29T03:05:33.766Z,67.26
2022-11-29T03:08:19.933Z,67.38
2022-11-29T03:11:03.564Z,67.37
2022-11-29T03:13:53.058Z,67.34
2022-11-29T03:16:39.687Z,67.25
2022-11-29T03:19:10.297Z,67.14
2022-11-29T03:21:58.538Z,67.43
2022-11-29T03:24:48.774Z,67.23
2022-11-29T03:27:43.754Z,67.59
2022-11-29T03:30:14.172Z,67.39
2022-11-29T03:32:56.499Z,67.51
2022-11-29T03:35:54.703Z,67.28
2022-11-29T03:38:44.905Z,66.86
2022-11-29T03:41:18.172Z,66.99
2022-11-29T03:44:13.366Z,66.99
2022-11-29T03:47:14.051Z,66.42
2022-11-29T03:49:56.691Z,66.42
2022-11-29T03:52:30.471Z,66.42
2022-11-29T03:55:10.063Z,65.92
2022-11-29T03:58:08.779Z,66.07
2022-11-29T04:01:08.356Z,66.10
2022-11-29T04:03:54.103Z,65.66
2022-11-29T04:06:33.164Z,65.84
2022-11-29T04:09:35.828Z,66.01
2022-11-29T04:12:16.157Z,65.95
2022-11-29T04:15:10.434Z,66.27
2022-11-29T04:18:47.782Z,66.04
2022-11-29T04:21:36.211Z,65.63
2022-11-29T04:24:12.435Z,66.05
2022-11-29T04:26:58.335Z,66.00
2022-11-29T04:29:50.445Z,66.16
2022-11-29T04:32:51.754Z,65.51
2022-11-29T04:35:55.888Z,65.46
2022-11-29T04:38:59.363Z,65.15
2022-11-29T04:41:55.996Z,65.22
2022-11-29T04:44:37.204Z,65.78
2022-11-29T04:47:26.057Z,65.41
2022-11-29T04:50:16.916Z,65.42
2022-11-29T04:53:05.607Z,64.80
2022-11-29T04:55:39.070Z,64.83
2022-11-29T04:58:19.592Z,65.25
2022-11-29T05:01:04.980Z,65.11
2022-11-29T05:03:40.935Z,65.12
2022-11-29T05:06:21.295Z,64.64
2022-11-29T05:09:17.696Z,64.36
2022-11-29T05:11:45.135Z,64.66
2022-11-29T05:14:59.920Z,64.55
2022-11-29T05:17:42.539Z,64.50
2022-11-29T05:20:31.854Z,64.36
2022-11-29T05:23:18.116Z,65.15
2022-11-29T05:26:07.127Z,64.29
2022-11-29T05:29:05.305Z,63.83
2022-11-29T05:31:41.703Z,64.02
2022-11-29T05:35:04.311Z,63.78
2022-11-29T05:37:43.506Z,64.30
2022-11-29T05:40:13.771Z,64.13
2022-11-29T05:42:59.792Z,64.96
2022-11-29T05:45:34.967Z,64.44
2022-11-29T05:48:14.294Z,64.13
2022-11-29T05:51:19.082Z,64.34
2022-11-29T05:54:24.663Z,64.65
2022-11-29T05:57:11.952Z,64.04
2022-11-29T05:59:42.866Z,65.00
2022-11-29T06:02:38.303Z,64.90
2022-11-29T06:05:25.763Z,65.05
2022-11-29T06:08:20.326Z,64.79
2022-11-29T06:11:14.076Z,65.32
2022-11-29T06:14:03.188Z,64.66
2022-11-29T06:16:57.105Z,65.00
2022-11-29T06:19:30.584Z,64.47
2022-11-29T06:22:21.466Z,64.43
2022-11-29T06:25:07.943Z,63.86
2022-11-29T06:27:38.349Z,63.74
2022-11-29T06:30:15.182Z,63.70
2022-11-29T06:33:08.623Z,63.25
2022-11-29T06:36:13.130Z,63.26
2022-11-29T06:38:41.662Z,63.40
2022-11-29T06:41:16.681Z,62.94
2022-11-29T06:43:44.621Z,63.28
2022-11-29T06:46:35.217Z,63.14
2022-11-29T06:49:28.668Z,63.12
2022-11-29T06:52:02.219Z,62.93
2022-11-29T06:55:13.984Z,63.02
2022-11-29T06:58:07.844Z,62.84
2022-11-29T07:00:58.066Z,62.41
2022-11-29T07:03:44.099Z,62.80
2022-11-29T07:06:40.848Z,61.83
2022-11-29T07:09:19.427Z,62.11
2022-11-29T07:11:48.169Z,62.44
2022-11-29T07:14:15.856Z,62.31
2022-11-29T07:16:59.917Z,62.81
2022-11-29T07:19:33.077Z,62.25
2022-11-29T07:22:14.550Z,61.84
2022-11-29T07:24:56.622Z,61.87
2022-11-29T07:27:49.980Z,60.33
2022-11-29T07:30:21.870Z,61.49
2022-11-29T07:33:05.774Z,61.47
2022-11-29T07:35:53.147Z,61.53
2022-11-29T07:38:43.669Z,61.70
2022-11-29T07:41:40.493Z,61.94
2022-11-29T07:44:36.319Z,62.33
2022-11-29T07:47:03.858Z,61.60
2022-11-29T07:49:31.321Z,61.88
2022-11-29T07:51:58.943Z,60.98
2022-11-29T07:54:26.410Z,61.40
2022-11-29T07:56:53.943Z,60.55
2022-11-29T07:59:21.439Z,60.49
2022-11-29T08:01:49.104Z,60.91
2022-11-29T08:04:16.620Z,61.10
2022-11-29T08:06:44.487Z,60.78
2022-11-29T08:09:12.135Z,60.91
2022-11-29T08:11:40.000Z,61.28
2022-11-29T08:14:07.487Z,61.46
2022-11-29T08:16:35.908Z,60.86
2022-11-29T08:19:03.906Z,60.78
2022-11-29T08:21:31.411Z,60.78
2022-11-29T08:23:58.846Z,60.64
2022-11-29T08:26:31.236Z,60.63
2022-11-29T08:29:01.204Z,61.12
2022-11-29T08:31:28.886Z,60.55
2022-11-29T08:33:56.346Z,60.06
2022-11-29T08:36:23.876Z,60.93
2022-11-29T08:38:55.827Z,60.96
2022-11-29T08:41:29.127Z,60.55
2022-11-29T08:43:56.827Z,60.96
2022-11-29T08:46:44.263Z,60.70
2022-11-29T08:49:11.847Z,60.58
2022-11-29T08:51:41.555Z,60.63
2022-11-29T08:54:09.243Z,60.07
2022-11-29T08:59:25.787Z,59.56
2022-11-29T09:01:53.290Z,60.20
2022-11-29T09:04:20.761Z,60.27
2022-11-29T09:06:51.198Z,59.56
2022-11-29T09:09:21.161Z,59.81
2022-11-29T09:11:49.747Z,59.48
2022-11-29T09:14:18.235Z,60.11
2022-11-29T09:16:45.748Z,59.85
2022-11-29T09:19:14.446Z,59.83
2022-11-29T09:21:41.942Z,59.62
2022-11-29T09:24:10.304Z,59.34
2022-11-29T09:26:41.908Z,59.50
2022-11-29T09:29:10.963Z,59.43
2022-11-29T09:31:38.459Z,59.62
2022-11-29T09:34:05.908Z,59.17
2022-11-29T09:36:33.810Z,58.76
2022-11-29T09:39:04.966Z,58.68
2022-11-29T09:41:59.385Z,58.83
2022-11-29T09:44:52.154Z,58.82
2022-11-29T09:47:19.637Z,59.11
2022-11-29T09:49:56.270Z,58.82
2022-11-29T09:52:32.682Z,58.60
2022-11-29T09:55:24.773Z,58.55
2022-11-29T09:57:55.419Z,58.78
2022-11-29T10:00:23.105Z,58.80
2022-11-29T10:02:58.950Z,58.55
2022-11-29T10:05:35.572Z,57.85
2022-11-29T10:08:14.679Z,57.55
2022-11-29T10:10:51.067Z,57.15
2022-11-29T10:13:27.378Z,57.34
2022-11-29T10:16:00.011Z,57.45
2022-11-29T10:19:07.940Z,57.36
2022-11-29T10:21:38.670Z,57.65
2022-11-29T10:24:14.772Z,57.79
2022-11-29T10:26:43.643Z,57.80
2022-11-29T10:29:15.441Z,57.26
2022-11-29T10:31:49.583Z,57.36
2022-11-29T10:34:20.574Z,57.37
2022-11-29T10:36:55.587Z,57.19
2022-11-29T10:39:30.717Z,57.49
2022-11-29T10:42:02.301Z,57.38
2022-11-29T10:44:33.213Z,57.65
2022-11-29T10:47:10.428Z,57.73
2022-11-29T10:49:40.366Z,57.73
2022-11-29T10:52:21.178Z,57.62
2022-11-29T10:54:53.897Z,57.97
2022-11-29T10:57:22.697Z,58.19
2022-11-29T11:00:09.868Z,57.97
2022-11-29T11:02:38.043Z,58.47
2022-11-29T11:05:18.821Z,58.33
2022-11-29T11:07:57.484Z,58.47
2022-11-29T11:10:30.906Z,58.31
2022-11-29T11:13:08.210Z,58.28
2022-11-29T11:15:36.086Z,58.73
2022-11-29T11:18:06.379Z,58.62
2022-11-29T11:20:42.626Z,59.01
2022-11-29T11:23:29.927Z,58.81
2022-11-29T11:26:02.375Z,58.88
2022-11-29T11:28:47.285Z,59.06
2022-11-29T11:31:15.494Z,59.04
2022-11-29T11:33:46.564Z,59.01
2022-11-29T11:36:23.097Z,59.01
2022-11-29T11:38:50.625Z,58.57
2022-11-29T11:41:48.020Z,58.64
2022-11-29T11:44:46.836Z,58.51
2022-11-29T11:47:22.199Z,58.29
2022-11-29T11:49:56.009Z,58.12
2022-11-29T11:52:27.851Z,58.27
2022-11-29T11:54:59.342Z,57.97
2022-11-29T11:57:28.023Z,58.53
2022-11-29T12:00:04.997Z,58.69
2022-11-29T12:02:40.843Z,58.50
2022-11-29T12:05:19.406Z,58.25
2022-11-29T12:08:10.820Z,58.68
2022-11-29T12:10:40.570Z,58.64
2022-11-29T12:13:19.802Z,58.72
2022-11-29T12:15:50.039Z,58.84
2022-11-29T12:18:38.020Z,58.47
2022-11-29T12:21:16.550Z,58.65
2022-11-29T12:23:57.158Z,58.96
2022-11-29T12:26:56.406Z,59.14
2022-11-29T12:29:28.446Z,59.28
2022-11-29T12:32:32.516Z,59.33
2022-11-29T12:35:42.836Z,59.11
2022-11-29T12:38:33.481Z,59.23
2022-11-29T12:41:28.863Z,59.78
2022-11-29T12:44:17.935Z,59.15
2022-11-29T12:47:02.114Z,59.57
2022-11-29T12:50:05.114Z,59.76
2022-11-29T12:53:03.875Z,59.86
2022-11-29T12:55:57.500Z,59.92
2022-11-29T12:59:03.005Z,60.30
2022-11-29T13:01:38.558Z,60.44
2022-11-29T13:04:21.340Z,60.79
2022-11-29T13:07:00.675Z,61.55
2022-11-29T13:10:11.472Z,61.61
2022-11-29T13:12:47.236Z,61.16
2022-11-29T13:15:21.606Z,61.37
2022-11-29T13:18:14.818Z,61.93
2022-11-29T13:20:48.065Z,61.30
2022-11-29T13:24:12.191Z,61.73
2022-11-29T13:26:43.202Z,60.98
2022-11-29T13:29:16.396Z,61.78
2022-11-29T13:31:46.279Z,62.06
2022-11-29T13:34:17.582Z,62.23
2022-11-29T13:37:06.635Z,61.80
2022-11-29T13:39:43.162Z,61.74
2022-11-29T13:42:16.035Z,61.94
2022-11-29T13:44:56.172Z,61.76
2022-11-29T13:47:24.122Z,61.60
2022-11-29T13:50:05.588Z,61.51
2022-11-29T13:52:41.660Z,61.76
2022-11-29T13:55:12.030Z,61.72
2022-11-29T14:00:44.084Z,62.11
2022-11-29T14:03:27.800Z,61.75
2022-11-29T14:06:15.431Z,62.08
2022-11-29T14:09:24.109Z,61.83
2022-11-29T14:12:19.024Z,62.06
2022-11-29T14:14:51.265Z,61.47
2022-11-29T14:17:27.618Z,61.14
2022-11-29T14:20:23.754Z,61.85
2022-11-29T14:23:06.466Z,62.01
2022-11-29T14:25:51.004Z,61.88
2022-11-29T14:28:21.748Z,62.00
2022-11-29T14:30:50.496Z,62.21
2022-11-29T14:34:02.014Z,62.40
2022-11-29T14:36:53.569Z,62.11
2022-11-29T14:39:30.330Z,62.31
2022-11-29T14:42:18.770Z,62.33
2022-11-29T14:44:51.346Z,61.45
2022-11-29T14:47:50.207Z,61.92
2022-11-29T14:50:36.702Z,62.24
2022-11-29T14:53:06.724Z,61.93
2022-11-29T14:55:38.366Z,61.78
2022-11-29T14:58:17.565Z,61.57
2022-11-29T15:00:47.815Z,61.73
2022-11-29T15:03:30.820Z,62.05
2022-11-29T15:06:13.731Z,61.59
2022-11-29T15:09:03.234Z,62.16
2022-11-29T15:11:34.319Z,61.27
2022-11-29T15:14:07.155Z,61.99
2022-11-29T15:16:40.451Z,61.99
2022-11-29T15:19:49.778Z,62.32
2022-11-29T15:22:28.703Z,62.12
2022-11-29T15:25:12.417Z,62.67
2022-11-29T15:27:57.052Z,62.76
2022-11-29T15:30:38.545Z,62.67
2022-11-29T15:33:25.065Z,63.08
2022-11-29T15:36:03.369Z,62.57
2022-11-29T15:38:42.436Z,62.97
2022-11-29T15:41:41.126Z,62.85
2022-11-29T15:44:22.610Z,62.91
2022-11-29T15:46:50.177Z,62.88
2022-11-29T15:49:28.142Z,63.64
2022-11-29T15:52:02.310Z,63.57
2022-11-29T15:54:35.197Z,63.43
2022-11-29T15:57:13.894Z,63.53
2022-11-29T16:00:04.926Z,63.82
2022-11-29T16:02:40.763Z,63.55
2022-11-29T16:05:29.182Z,64.12
2022-11-29T16:08:01.377Z,63.22
2022-11-29T16:10:43.882Z,63.95
2022-11-29T16:13:40.069Z,64.32
2022-11-29T16:16:15.712Z,64.92
2022-11-29T16:18:45.646Z,65.00
2022-11-29T16:21:29.073Z,65.76
2022-11-29T16:23:57.647Z,64.51
2022-11-29T16:26:39.251Z,65.66
2022-11-29T16:29:36.550Z,65.50
2022-11-29T16:32:19.216Z,65.27
2022-11-29T16:34:47.151Z,64.51
2022-11-29T16:37:20.702Z,65.27
2022-11-29T16:39:50.586Z,64.84
2022-11-29T16:42:26.296Z,64.51
2022-11-29T16:45:01.083Z,64.23
2022-11-29T16:47:31.277Z,65.05
2022-11-29T16:50:01.565Z,65.27
2022-11-29T16:52:33.430Z,64.72
2022-11-29T16:55:01.236Z,64.21
2022-11-29T16:57:31.654Z,64.86
2022-11-29T16:59:59.313Z,64.22
2022-11-29T17:02:29.994Z,65.06
2022-11-29T17:04:58.913Z,64.93
2022-11-29T17:07:31.767Z,65.01
2022-11-29T17:09:59.840Z,65.71
2022-11-29T17:12:27.349Z,65.18
2022-11-29T17:14:54.896Z,65.15
2022-11-29T17:17:22.342Z,65.82
2022-11-29T17:19:49.839Z,65.23
2022-11-29T17:22:17.389Z,65.81
2022-11-29T17:24:48.296Z,65.35
2022-11-29T17:27:16.358Z,65.03
2022-11-29T17:29:43.846Z,65.85
2022-11-29T17:32:11.488Z,65.32
2022-11-29T17:34:39.064Z,65.37
2022-11-29T17:37:06.681Z,65.51
2022-11-29T17:39:34.215Z,65.33
2022-11-29T17:42:04.018Z,65.52
2022-11-29T17:44:34.482Z,65.73
2022-11-29T17:47:02.087Z,65.65
2022-11-29T17:49:31.984Z,65.88
2022-11-29T17:51:59.526Z,65.92
2022-11-29T17:54:28.450Z,66.19
2022-11-29T17:56:55.902Z,66.34
2022-11-29T17:59:23.413Z,66.30
2022-11-29T18:01:51.036Z,66.61
2022-11-29T18:04:18.711Z,65.80
2022-11-29T18:06:50.157Z,65.39
2022-11-29T18:09:19.689Z,65.85
2022-11-29T18:11:50.100Z,65.36
2022-11-29T18:14:22.807Z,65.18
2022-11-29T18:16:51.668Z,65.13
2022-11-29T18:19:21.739Z,64.97
2022-11-29T18:21:50.360Z,65.10
2022-11-29T18:24:18.470Z,65.26
2022-11-29T18:26:46.006Z,64.68
2022-11-29T18:29:13.721Z,64.74
2022-11-29T18:31:43.703Z,65.38
2022-11-29T18:34:13.553Z,64.49
2022-11-29T18:36:44.414Z,64.83
2022-11-29T18:39:14.589Z,64.88
2022-11-29T18:41:47.197Z,64.49
2022-11-29T18:44:17.522Z,64.92
2022-11-29T18:46:46.101Z,64.97
2022-11-29T18:49:16.152Z,65.04
2022-11-29T18:51:45.516Z,65.05
2022-11-29T18:54:15.937Z,65.16
2022-11-29T18:56:45.484Z,65.43
2022-11-29T18:59:18.568Z,65.40
2022-11-29T19:01:48.231Z,65.32
2022-11-29T19:04:18.783Z,64.84
2022-11-29T19:06:46.835Z,65.66
2022-11-29T19:09:23.971Z,65.56
2022-11-29T19:11:51.748Z,65.16
2022-11-29T19:14:21.455Z,65.55
2022-11-29T19:16:50.132Z,66.03
2022-11-29T19:19:19.081Z,66.00
2022-11-29T19:21:47.523Z,65.28
2022-11-29T19:24:18.348Z,65.71
2022-11-29T19:26:49.773Z,65.37
2022-11-29T19:29:17.722Z,65.73
2022-11-29T19:31:45.604Z,65.62
2022-11-29T19:34:13.585Z,66.06
2022-11-29T19:36:43.635Z,66.05
2022-11-29T19:39:13.485Z,65.82
2022-11-29T19:41:48.452Z,66.08
2022-11-29T19:44:16.209Z,65.82
2022-11-29T19:46:47.216Z,65.87
2022-11-29T19:49:15.337Z,65.93
2022-11-29T19:51:43.148Z,66.63
2022-11-29T19:54:12.024Z,66.08
2022-11-29T19:56:44.893Z,65.81
2022-11-29T19:59:12.498Z,65.47
2022-11-29T20:01:42.279Z,65.89
2022-11-29T20:04:13.198Z,65.63
2022-11-29T20:06:41.338Z,65.60
2022-11-29T20:09:09.582Z,65.42
2022-11-29T20:11:37.149Z,65.41
2022-11-29T20:14:06.353Z,65.74
2022-11-29T20:16:34.707Z,65.54
2022-11-29T20:19:02.415Z,65.63
2022-11-29T20:21:32.644Z,64.98
2022-11-29T20:24:04.790Z,65.24
2022-11-29T20:26:35.644Z,65.58
2022-11-29T20:29:04.785Z,64.94
2022-11-29T20:31:34.545Z,64.73
2022-11-29T20:34:03.262Z,64.86
2022-11-29T20:36:58.616Z,64.55
2022-11-29T20:40:13.891Z,64.37
2022-11-29T20:43:01.839Z,64.84
2022-11-29T20:45:29.569Z,64.92
2022-11-29T20:48:04.483Z,64.06
2022-11-29T20:50:32.555Z,64.58
2022-11-29T20:53:12.183Z,64.49
2022-11-29T20:55:43.678Z,64.51
2022-11-29T20:58:14.005Z,64.87
2022-11-29T21:00:41.472Z,64.38
2022-11-29T21:03:12.423Z,64.28
2022-11-29T21:05:47.751Z,64.51
2022-11-29T21:08:17.324Z,64.58
2022-11-29T21:10:45.770Z,64.28
2022-11-29T21:13:14.437Z,64.77
2022-11-29T21:15:42.542Z,64.55
2022-11-29T21:18:24.666Z,64.19
2022-11-29T21:21:07.454Z,63.77
2022-11-29T21:24:00.907Z,64.15
2022-11-29T21:26:49.599Z,63.55
2022-11-29T21:29:22.109Z,64.82
2022-11-29T21:31:54.382Z,63.79
2022-11-29T21:34:21.985Z,63.63
2022-11-29T21:36:56.693Z,63.83
2022-11-29T21:39:35.269Z,63.94
2022-11-29T21:42:03.094Z,63.17
2022-11-29T21:44:30.608Z,63.28
2022-11-29T21:47:03.285Z,63.04
2022-11-29T21:49:31.040Z,63.02
2022-11-29T21:52:01.158Z,63.41
2022-11-29T21:54:29.493Z,63.76
2022-11-29T21:56:57.014Z,63.15
2022-11-29T21:59:25.071Z,63.04
2022-11-29T22:01:53.134Z,63.35
2022-11-29T22:04:21.388Z,63.36
2022-11-29T22:06:48.911Z,63.37
2022-11-29T22:09:16.457Z,63.59
2022-11-29T22:11:44.076Z,63.65
2022-11-29T22:14:16.366Z,63.74
2022-11-29T22:16:50.333Z,63.38
2022-11-29T22:19:19.288Z,63.65
2022-11-29T22:21:49.834Z,63.54
2022-11-29T22:24:19.765Z,63.73
2022-11-29T22:26:48.467Z,63.65
2022-11-29T22:29:16.716Z,62.92
2022-11-29T22:31:47.122Z,63.25
2022-11-29T22:34:14.813Z,63.27
2022-11-29T22:36:42.720Z,63.66
2022-11-29T22:39:10.639Z,62.96
2022-11-29T22:41:39.394Z,63.58
2022-11-29T22:44:07.501Z,63.15
2022-11-29T22:46:40.213Z,63.15
2022-11-29T22:49:08.125Z,63.25
2022-11-29T22:51:37.583Z,63.70
2022-11-29T22:54:08.086Z,63.71
2022-11-29T22:56:38.782Z,63.99
2022-11-29T22:59:06.446Z,63.73
2022-11-29T23:01:36.359Z,63.63
2022-11-29T23:04:07.323Z,63.11
2022-11-29T23:06:43.815Z,63.33
2022-11-29T23:09:16.534Z,63.27
2022-11-29T23:11:51.100Z,62.88
2022-11-29T23:14:20.189Z,62.79
2022-11-29T23:16:47.769Z,62.80
2022-11-29T23:19:16.733Z,62.98
2022-11-29T23:21:45.976Z,63.29
2022-11-29T23:24:16.691Z,62.79
2022-11-29T23:26:47.216Z,63.20
2022-11-29T23:29:19.440Z,63.10
2022-11-29T23:31:49.363Z,63.02
2022-11-29T23:34:17.218Z,63.47
2022-11-29T23:36:49.667Z,63.40
2022-11-29T23:39:20.145Z,63.30
2022-11-29T23:41:47.695Z,63.35
2022-11-29T23:44:15.178Z,62.79
2022-11-29T23:46:42.617Z,63.28
2022-11-29T23:49:10.190Z,63.42
2022-11-29T23:51:37.667Z,62.74
2022-11-29T23:54:05.322Z,63.16
2022-11-29T23:56:35.586Z,63.33
2022-11-29T23:59:03.447Z,63.07
